Time,TemperatureF,DewpointF,PressureIn,WindDirection,WindDirectionDegrees,WindSpeedMPH,WindSpeedGustMPH,Humidity,HourlyPrecipIn,Conditions,Clouds,dailyrainin,SoftwareType,DateUTC
2013-01-30 00:02:00,9.0,-8.0,30.13,West,279,2.0,10.0,46,0.00,,,0.00,,2013-01-30 07:02:00,
2013-01-30 00:11:00,9.0,-8.0,30.13,West,279,2.0,10.0,46,0.00,,,0.00,,2013-01-30 07:11:00,
2013-01-30 00:21:00,11.0,-8.0,30.11,West,264,5.0,8.0,41,0.00,,,0.00,,2013-01-30 07:21:00,
2013-01-30 00:32:00,11.0,-8.0,30.11,West,264,5.0,8.0,41,0.00,,,0.00,,2013-01-30 07:32:00,
2013-01-30 00:41:00,11.0,-8.0,30.11,West,264,5.0,8.0,41,0.00,,,0.00,,2013-01-30 07:41:00,
2013-01-30 00:52:00,12.0,-8.0,30.10,West,271,5.0,12.0,40,0.00,,,0.00,,2013-01-30 07:52:00,
2013-01-30 01:01:00,12.0,-8.0,30.10,West,271,5.0,12.0,40,0.00,,,0.00,,2013-01-30 08:01:00,
2013-01-30 01:11:00,12.0,-8.0,30.10,West,271,5.0,12.0,40,0.00,,,0.00,,2013-01-30 08:11:00,
2013-01-30 01:21:00,12.0,-8.0,30.07,West,275,4.0,13.0,40,0.00,,,0.00,,2013-01-30 08:21:00,
2013-01-30 01:32:00,11.0,-8.0,30.07,WSW,257,5.0,7.0,41,0.00,,,0.00,,2013-01-30 08:32:00,
2013-01-30 01:42:00,11.0,-8.0,30.07,WSW,257,5.0,7.0,41,0.00,,,0.00,,2013-01-30 08:42:00,
2013-01-30 01:52:00,12.0,-6.0,30.08,West,278,3.0,12.0,43,0.00,,,0.00,,2013-01-30 08:52:00,
2013-01-30 02:01:00,12.0,-6.0,30.08,West,266,3.0,7.0,43,0.00,,,0.00,,2013-01-30 09:01:00,
2013-01-30 02:11:00,12.0,-6.0,30.08,West,266,3.0,7.0,43,0.00,,,0.00,,2013-01-30 09:11:00,
2013-01-30 02:21:00,12.0,-6.0,30.07,WSW,242,5.0,8.0,44,0.00,,,0.00,,2013-01-30 09:21:00,
2013-01-30 02:32:00,12.0,-4.0,30.07,SW,230,5.0,10.0,47,0.00,,,0.00,,2013-01-30 09:32:00,
2013-01-30 02:42:00,12.0,-4.0,30.07,SW,230,5.0,10.0,47,0.00,,,0.00,,2013-01-30 09:42:00,
2013-01-30 02:52:00,12.0,-3.0,30.08,SW,232,6.0,12.0,49,0.00,,,0.00,,2013-01-30 09:52:00,
2013-01-30 03:01:00,11.0,-5.0,30.07,West,259,3.0,12.0,48,0.00,,,0.00,,2013-01-30 10:01:00,
2013-01-30 03:11:00,11.0,-5.0,30.07,West,259,3.0,12.0,48,0.00,,,0.00,,2013-01-30 10:11:00,
2013-01-30 03:21:00,12.0,-5.0,30.07,West,266,3.0,7.0,45,0.00,,,0.00,,2013-01-30 10:21:00,
2013-01-30 03:32:00,12.0,-6.0,30.06,WSW,242,6.0,16.0,43,0.00,,,0.00,,2013-01-30 10:32:00,
2013-01-30 03:41:00,12.0,-6.0,30.06,WSW,242,6.0,16.0,43,0.00,,,0.00,,2013-01-30 10:41:00,
2013-01-30 03:52:00,13.0,-6.0,30.05,SW,230,4.0,14.0,41,0.00,,,0.00,,2013-01-30 10:52:00,
2013-01-30 04:02:00,12.0,-7.0,30.05,WSW,237,4.0,12.0,41,0.00,,,0.00,,2013-01-30 11:02:00,
2013-01-30 04:11:00,12.0,-7.0,30.05,WSW,237,4.0,12.0,41,0.00,,,0.00,,2013-01-30 11:11:00,
2013-01-30 04:22:00,12.0,-6.0,30.03,WSW,240,9.0,17.0,44,0.00,,,0.00,,2013-01-30 11:22:00,
2013-01-30 04:32:00,12.0,-6.0,30.03,WSW,240,9.0,17.0,44,0.00,,,0.00,,2013-01-30 11:32:00,
2013-01-30 04:42:00,12.0,-6.0,30.03,WSW,240,9.0,17.0,44,0.00,,,0.00,,2013-01-30 11:42:00,
2013-01-30 04:52:00,12.0,-8.0,30.06,WSW,238,5.0,20.0,40,0.00,,,0.00,,2013-01-30 11:52:00,
2013-01-30 05:02:00,12.0,-6.0,30.06,WNW,283,9.0,20.0,44,0.00,,,0.00,,2013-01-30 12:02:00,
2013-01-30 05:12:00,12.0,-6.0,30.06,WNW,283,9.0,20.0,44,0.00,,,0.00,,2013-01-30 12:12:00,
2013-01-30 05:22:00,14.0,-9.0,30.01,SSW,199,19.0,36.0,34,0.00,,,0.00,,2013-01-30 12:22:00,
2013-01-30 05:32:00,15.0,-8.0,30.01,WSW,245,19.0,40.0,34,0.00,,,0.00,,2013-01-30 12:32:00,
2013-01-30 05:42:00,15.0,-8.0,30.01,WSW,245,19.0,40.0,34,0.00,,,0.00,,2013-01-30 12:42:00,
2013-01-30 06:02:00,15.0,-8.0,30.00,WSW,241,13.0,25.0,35,0.00,,,0.00,,2013-01-30 13:02:00,
2013-01-30 06:12:00,15.0,-8.0,30.00,WSW,241,13.0,25.0,35,0.00,,,0.00,,2013-01-30 13:12:00,
2013-01-30 06:23:00,16.0,-7.0,29.99,West,266,13.0,35.0,34,0.00,,,0.00,,2013-01-30 13:23:00,
2013-01-30 06:32:00,16.0,-7.0,29.99,West,266,13.0,35.0,34,0.00,,,0.00,,2013-01-30 13:32:00,
2013-01-30 06:42:00,16.0,-7.0,29.99,West,266,13.0,35.0,34,0.00,,,0.00,,2013-01-30 13:42:00,
2013-01-30 06:52:00,16.0,-7.0,29.99,West,266,13.0,35.0,34,0.00,,,0.00,,2013-01-30 13:52:00,
2013-01-30 07:02:00,16.0,-6.0,29.98,WNW,293,12.0,35.0,37,0.00,,,0.00,,2013-01-30 14:02:00,
2013-01-30 07:12:00,16.0,-6.0,29.98,WNW,293,12.0,35.0,37,0.00,,,0.00,,2013-01-30 14:12:00,
2013-01-30 07:23:00,17.0,-5.0,29.99,West,271,12.0,26.0,37,0.00,,,0.00,,2013-01-30 14:23:00,
2013-01-30 07:33:00,17.0,-5.0,29.99,West,271,12.0,26.0,37,0.00,,,0.00,,2013-01-30 14:33:00,
2013-01-30 07:42:00,17.0,-5.0,29.99,West,271,12.0,26.0,37,0.00,,,0.00,,2013-01-30 14:42:00,
2013-01-30 07:53:00,17.0,-5.0,29.99,West,271,12.0,26.0,37,0.00,,,0.00,,2013-01-30 14:53:00,
2013-01-30 08:03:00,18.0,-3.0,30.01,West,264,13.0,30.0,38,0.00,,,0.00,,2013-01-30 15:03:00,
2013-01-30 08:12:00,18.0,-3.0,30.01,West,264,13.0,30.0,38,0.00,,,0.00,,2013-01-30 15:12:00,
2013-01-30 08:23:00,19.0,-4.0,29.98,West,279,12.0,30.0,36,0.00,,,0.00,,2013-01-30 15:23:00,
2013-01-30 08:33:00,19.0,-4.0,29.98,West,279,12.0,30.0,36,0.00,,,0.00,,2013-01-30 15:33:00,
2013-01-30 08:43:00,19.0,-4.0,29.98,West,279,12.0,30.0,36,0.00,,,0.00,,2013-01-30 15:43:00,
2013-01-30 08:53:00,20.0,-3.0,29.98,NW,309,25.0,40.0,35,0.00,,,0.00,,2013-01-30 15:53:00,
2013-01-30 09:03:00,20.0,-3.0,29.98,NW,309,25.0,40.0,35,0.00,,,0.00,,2013-01-30 16:03:00,
2013-01-30 09:12:00,20.0,-3.0,29.98,NW,309,25.0,40.0,35,0.00,,,0.00,,2013-01-30 16:12:00,
2013-01-30 09:23:00,22.0,-3.0,29.97,WNW,282,14.0,35.0,32,0.00,,,0.00,,2013-01-30 16:23:00,
2013-01-30 09:32:00,22.0,-3.0,29.97,West,270,29.0,37.0,32,0.00,,,0.00,,2013-01-30 16:32:00,
2013-01-30 09:42:00,22.0,-3.0,29.97,West,270,29.0,37.0,32,0.00,,,0.00,,2013-01-30 16:42:00,
2013-01-30 09:52:00,22.0,-3.0,29.97,West,270,29.0,37.0,32,0.00,,,0.00,,2013-01-30 16:52:00,
2013-01-30 10:02:00,23.0,-3.0,30.00,WNW,289,22.0,40.0,31,0.00,,,0.00,,2013-01-30 17:02:00,
2013-01-30 10:12:00,23.0,-3.0,30.00,WNW,289,22.0,40.0,31,0.00,,,0.00,,2013-01-30 17:12:00,
2013-01-30 10:22:00,24.0,-2.0,29.98,WSW,242,17.0,35.0,31,0.00,,,0.00,,2013-01-30 17:22:00,
2013-01-30 10:32:00,24.0,0.0,30.00,WNW,288,18.0,35.0,35,0.00,,,0.00,,2013-01-30 17:32:00,
2013-01-30 10:42:00,24.0,0.0,30.00,WNW,288,18.0,35.0,35,0.00,,,0.00,,2013-01-30 17:42:00,
2013-01-30 10:53:00,22.0,2.0,30.01,WSW,256,14.0,35.0,41,0.00,,,0.00,,2013-01-30 17:53:00,
2013-01-30 11:02:00,23.0,2.0,30.01,West,273,15.0,25.0,40,0.00,,,0.00,,2013-01-30 18:02:00,
2013-01-30 11:12:00,23.0,2.0,30.01,West,273,15.0,25.0,40,0.00,,,0.00,,2013-01-30 18:12:00,
2013-01-30 11:22:00,24.0,4.0,30.01,SW,225,20.0,30.0,41,0.00,,,0.00,,2013-01-30 18:22:00,
2013-01-30 11:33:00,24.0,4.0,30.01,SW,225,20.0,30.0,41,0.00,,,0.00,,2013-01-30 18:33:00,
2013-01-30 11:42:00,24.0,4.0,30.01,SW,225,20.0,30.0,41,0.00,,,0.00,,2013-01-30 18:42:00,
2013-01-30 11:53:00,25.0,7.0,30.00,WSW,238,12.0,26.0,45,0.00,,,0.00,,2013-01-30 18:53:00,
2013-01-30 12:02:00,25.0,7.0,30.00,WSW,238,12.0,26.0,45,0.00,,,0.00,,2013-01-30 19:02:00,
2013-01-30 12:12:00,25.0,7.0,30.00,WSW,238,12.0,26.0,45,0.00,,,0.00,,2013-01-30 19:12:00,
2013-01-30 12:22:00,25.0,9.0,29.98,WSW,244,16.0,35.0,49,0.00,,,0.00,,2013-01-30 19:22:00,
2013-01-30 12:32:00,26.0,9.0,29.98,WSW,253,21.0,35.0,48,0.00,,,0.00,,2013-01-30 19:32:00,
2013-01-30 12:43:00,26.0,9.0,29.98,WSW,253,21.0,35.0,48,0.00,,,0.00,,2013-01-30 19:43:00,
2013-01-30 12:53:00,26.0,8.0,29.96,West,278,14.0,33.0,46,0.00,,,0.00,,2013-01-30 19:53:00,
2013-01-30 13:03:00,26.0,9.0,29.96,WNW,286,11.0,26.0,47,0.00,,,0.00,,2013-01-30 20:03:00,
2013-01-30 13:12:00,26.0,9.0,29.96,WNW,286,11.0,26.0,47,0.00,,,0.00,,2013-01-30 20:12:00,
2013-01-30 13:22:00,27.0,5.0,29.96,West,268,17.0,35.0,39,0.00,,,0.00,,2013-01-30 20:22:00,
2013-01-30 13:33:00,28.0,5.0,29.96,WSW,249,15.0,29.0,37,0.00,,,0.00,,2013-01-30 20:33:00,
2013-01-30 13:42:00,28.0,5.0,29.96,WSW,249,15.0,29.0,37,0.00,,,0.00,,2013-01-30 20:42:00,
2013-01-30 13:53:00,28.0,5.0,29.95,West,275,14.0,29.0,36,0.00,,,0.00,,2013-01-30 20:53:00,
2013-01-30 14:03:00,28.0,7.0,29.93,WSW,244,11.0,36.0,41,0.00,,,0.00,,2013-01-30 21:03:00,
2013-01-30 14:12:00,28.0,7.0,29.93,WSW,244,11.0,36.0,41,0.00,,,0.00,,2013-01-30 21:12:00,
2013-01-30 14:23:00,28.0,5.0,29.93,WSW,247,20.0,35.0,37,0.00,,,0.00,,2013-01-30 21:23:00,
2013-01-30 14:32:00,27.0,5.0,29.92,West,269,21.0,35.0,39,0.00,,,0.00,,2013-01-30 21:32:00,
2013-01-30 14:42:00,27.0,5.0,29.92,West,269,21.0,35.0,39,0.00,,,0.00,,2013-01-30 21:42:00,
2013-01-30 14:52:00,27.0,5.0,29.92,West,269,21.0,35.0,39,0.00,,,0.00,,2013-01-30 21:52:00,
2013-01-30 15:03:00,27.0,5.0,29.92,West,269,21.0,35.0,39,0.00,,,0.00,,2013-01-30 22:03:00,
2013-01-30 15:12:00,27.0,5.0,29.92,West,269,21.0,35.0,39,0.00,,,0.00,,2013-01-30 22:12:00,
2013-01-30 15:53:00,27.0,10.0,29.94,SSW,201,13.0,26.0,48,0.00,,,0.00,,2013-01-30 22:53:00,
2013-01-30 16:02:00,25.0,11.0,29.94,WSW,255,13.0,24.0,55,0.00,,,0.00,,2013-01-30 23:02:00,
2013-01-30 16:12:00,25.0,11.0,29.94,WSW,255,13.0,24.0,55,0.00,,,0.00,,2013-01-30 23:12:00,
2013-01-30 16:22:00,25.0,11.0,29.97,West,261,8.0,20.0,55,0.00,,,0.00,,2013-01-30 23:22:00,
2013-01-30 16:32:00,25.0,12.0,29.97,WSW,254,9.0,25.0,56,0.00,,,0.00,,2013-01-30 23:32:00,
2013-01-30 16:42:00,25.0,12.0,29.97,WSW,254,9.0,25.0,56,0.00,,,0.00,,2013-01-30 23:42:00,
2013-01-30 16:52:00,25.0,12.0,29.97,WSW,254,9.0,25.0,56,0.00,,,0.00,,2013-01-30 23:52:00,
2013-01-30 17:02:00,26.0,12.0,29.94,SW,225,6.0,21.0,54,0.00,,,0.00,,2013-01-31 00:02:00,
2013-01-30 17:11:00,26.0,12.0,29.94,SW,225,6.0,21.0,54,0.00,,,0.00,,2013-01-31 00:11:00,
2013-01-30 17:22:00,27.0,10.0,29.95,SW,227,9.0,18.0,49,0.00,,,0.00,,2013-01-31 00:22:00,
2013-01-30 17:32:00,27.0,10.0,29.95,NNW,328,9.0,21.0,48,0.00,,,0.00,,2013-01-31 00:32:00,
2013-01-30 17:42:00,27.0,10.0,29.95,NNW,328,9.0,21.0,48,0.00,,,0.00,,2013-01-31 00:42:00,
2013-01-30 17:53:00,27.0,10.0,29.95,WSW,248,6.0,20.0,48,0.00,,,0.00,,2013-01-31 00:53:00,
2013-01-30 18:02:00,27.0,10.0,29.95,West,276,13.0,29.0,48,0.00,,,0.00,,2013-01-31 01:02:00,
2013-01-30 18:11:00,27.0,10.0,29.95,West,276,13.0,29.0,48,0.00,,,0.00,,2013-01-31 01:11:00,
2013-01-30 18:21:00,27.0,9.0,29.94,WSW,247,6.0,20.0,47,0.00,,,0.00,,2013-01-31 01:21:00,
2013-01-30 18:31:00,27.0,9.0,29.94,WSW,247,6.0,20.0,47,0.00,,,0.00,,2013-01-31 01:31:00,
2013-01-30 18:42:00,27.0,9.0,29.94,WSW,247,6.0,20.0,47,0.00,,,0.00,,2013-01-31 01:42:00,
2013-01-30 18:52:00,27.0,10.0,29.94,WSW,241,6.0,14.0,49,0.00,,,0.00,,2013-01-31 01:52:00,
2013-01-30 19:01:00,27.0,10.0,29.94,WSW,241,6.0,14.0,49,0.00,,,0.00,,2013-01-31 02:01:00,
2013-01-30 19:12:00,27.0,10.0,29.94,WSW,241,6.0,14.0,49,0.00,,,0.00,,2013-01-31 02:12:00,
2013-01-30 19:21:00,28.0,10.0,29.95,SW,229,10.0,26.0,46,0.00,,,0.00,,2013-01-31 02:21:00,
2013-01-30 19:32:00,28.0,10.0,29.95,SW,229,10.0,26.0,46,0.00,,,0.00,,2013-01-31 02:32:00,
2013-01-30 19:42:00,28.0,10.0,29.95,SW,229,10.0,26.0,46,0.00,,,0.00,,2013-01-31 02:42:00,
2013-01-30 19:52:00,28.0,10.0,29.95,SW,229,10.0,26.0,46,0.00,,,0.00,,2013-01-31 02:52:00,
2013-01-30 20:03:00,28.0,11.0,29.94,WSW,254,10.0,20.0,49,0.00,,,0.00,,2013-01-31 03:03:00,
2013-01-30 20:11:00,28.0,11.0,29.94,WSW,254,10.0,20.0,49,0.00,,,0.00,,2013-01-31 03:11:00,
2013-01-30 20:21:00,28.0,11.0,29.93,WSW,248,12.0,24.0,48,0.00,,,0.00,,2013-01-31 03:21:00,
2013-01-30 20:32:00,28.0,11.0,29.93,West,259,13.0,24.0,49,0.00,,,0.00,,2013-01-31 03:32:00,
2013-01-30 20:41:00,28.0,11.0,29.93,West,259,13.0,24.0,49,0.00,,,0.00,,2013-01-31 03:41:00,
2013-01-30 20:52:00,28.0,11.0,29.90,WSW,249,13.0,24.0,49,0.00,,,0.00,,2013-01-31 03:52:00,
2013-01-30 21:02:00,28.0,10.0,29.89,WSW,258,14.0,32.0,46,0.00,,,0.00,,2013-01-31 04:02:00,
2013-01-30 21:11:00,28.0,10.0,29.89,WSW,258,14.0,32.0,46,0.00,,,0.00,,2013-01-31 04:11:00,
2013-01-30 21:22:00,28.0,10.0,29.89,West,260,17.0,30.0,46,0.00,,,0.00,,2013-01-31 04:22:00,
2013-01-30 21:31:00,28.0,9.0,29.89,WSW,248,12.0,32.0,45,0.00,,,0.00,,2013-01-31 04:31:00,
2013-01-30 21:41:00,28.0,9.0,29.89,WSW,248,12.0,32.0,45,0.00,,,0.00,,2013-01-31 04:41:00,
2013-01-30 21:52:00,28.0,10.0,29.88,WSW,242,11.0,31.0,46,0.00,,,0.00,,2013-01-31 04:52:00,
2013-01-30 22:03:00,28.0,10.0,29.88,WSW,247,13.0,24.0,46,0.00,,,0.00,,2013-01-31 05:03:00,
2013-01-30 22:11:00,28.0,10.0,29.88,WSW,247,13.0,24.0,46,0.00,,,0.00,,2013-01-31 05:11:00,
2013-01-30 22:22:00,28.0,9.0,29.89,West,261,12.0,26.0,45,0.00,,,0.00,,2013-01-31 05:22:00,
2013-01-30 22:32:00,28.0,9.0,29.89,West,261,12.0,26.0,45,0.00,,,0.00,,2013-01-31 05:32:00,
2013-01-30 22:41:00,28.0,10.0,29.89,WSW,255,16.0,26.0,46,0.00,,,0.00,,2013-01-31 05:41:00,
2013-01-30 22:52:00,28.0,10.0,29.89,WSW,255,16.0,26.0,46,0.00,,,0.00,,2013-01-31 05:52:00,
2013-01-30 23:01:00,28.0,10.0,29.89,WSW,255,16.0,26.0,46,0.00,,,0.00,,2013-01-31 06:01:00,
2013-01-30 23:10:00,28.0,10.0,29.89,WSW,255,16.0,26.0,46,0.00,,,0.00,,2013-01-31 06:10:00,